sensor_id;sensor_type;location;lat;lon;timestamp;pressure;altitude;pressure_sealevel;temperature;humidity
13422;BME280;6782;55.904;13.396;2022-08-19T00:00:13;100186.91;;;21.21;100.00
13422;BME280;6782;55.904;13.396;2022-08-19T00:03:03;100183.53;;;20.59;100.00
13422;BME280;6782;55.904;13.396;2022-08-19T00:05:50;100188.88;;;20.59;100.00
13422;BME280;6782;55.904;13.396;2022-08-19T00:08:45;100171.75;;;20.00;100.00
13422;BME280;6782;55.904;13.396;2022-08-19T00:11:33;100158.16;;;20.39;100.00
13422;BME280;6782;55.904;13.396;2022-08-19T00:14:26;100144.88;;;19.89;100.00
13422;BME280;6782;55.904;13.396;2022-08-19T00:17:15;100139.34;;;19.67;100.00
13422;BME280;6782;55.904;13.396;2022-08-19T00:20:18;100130.78;;;19.62;100.00
13422;BME280;6782;55.904;13.396;2022-08-19T00:23:06;100128.19;;;19.73;100.00
13422;BME280;6782;55.904;13.396;2022-08-19T00:25:56;100128.56;;;20.05;100.00
13422;BME280;6782;55.904;13.396;2022-08-19T00:28:44;100118.72;;;20.05;100.00
13422;BME280;6782;55.904;13.396;2022-08-19T00:31:35;100099.16;;;19.29;100.00
13422;BME280;6782;55.904;13.396;2022-08-19T00:34:26;100097.50;;;19.66;100.00
13422;BME280;6782;55.904;13.396;2022-08-19T00:37:15;100086.63;;;19.80;100.00
13422;BME280;6782;55.904;13.396;2022-08-19T00:40:07;100063.97;;;19.73;100.00
13422;BME280;6782;55.904;13.396;2022-08-19T00:42:54;100052.44;;;19.60;100.00
13422;BME280;6782;55.904;13.396;2022-08-19T00:45:44;100050.53;;;19.98;100.00
13422;BME280;6782;55.904;13.396;2022-08-19T00:48:36;100045.34;;;19.84;100.00
13422;BME280;6782;55.904;13.396;2022-08-19T00:51:45;100022.25;;;19.70;100.00
13422;BME280;6782;55.904;13.396;2022-08-19T00:54:52;100003.06;;;19.40;100.00
13422;BME280;6782;55.904;13.396;2022-08-19T00:57:44;99979.41;;;19.21;100.00
13422;BME280;6782;55.904;13.396;2022-08-19T01:00:46;99963.88;;;19.26;100.00
13422;BME280;6782;55.904;13.396;2022-08-19T01:03:39;99938.00;;;19.27;100.00
13422;BME280;6782;55.904;13.396;2022-08-19T01:06:38;99925.13;;;19.57;100.00
13422;BME280;6782;55.904;13.396;2022-08-19T01:09:33;99923.41;;;19.80;100.00
13422;BME280;6782;55.904;13.396;2022-08-19T01:12:21;99928.25;;;19.75;100.00
13422;BME280;6782;55.904;13.396;2022-08-19T01:15:24;99918.66;;;19.49;100.00
13422;BME280;6782;55.904;13.396;2022-08-19T01:18:35;99920.34;;;19.73;100.00
13422;BME280;6782;55.904;13.396;2022-08-19T01:21:43;99926.78;;;19.71;100.00
13422;BME280;6782;55.904;13.396;2022-08-19T01:24:50;99930.34;;;19.95;100.00
13422;BME280;6782;55.904;13.396;2022-08-19T01:27:39;62769.09;;;-143.06;100.00
13422;BME280;6782;55.904;13.396;2022-08-19T01:30:29;-17093.75;;;20.21;100.00
13422;BME280;6782;55.904;13.396;2022-08-19T01:33:27;62769.09;;;-143.06;100.00
13422;BME280;6782;55.904;13.396;2022-08-19T01:36:22;62769.09;;;-143.06;100.00
13422;BME280;6782;55.904;13.396;2022-08-19T01:39:27;62769.09;;;-143.06;100.00
13422;BME280;6782;55.904;13.396;2022-08-19T01:42:30;99982.47;;;20.26;100.00
13422;BME280;6782;55.904;13.396;2022-08-19T01:45:18;99999.75;;;20.56;100.00
13422;BME280;6782;55.904;13.396;2022-08-19T01:48:14;100007.44;;;20.37;100.00
13422;BME280;6782;55.904;13.396;2022-08-19T01:51:06;100010.63;;;19.95;100.00
13422;BME280;6782;55.904;13.396;2022-08-19T01:54:02;100015.34;;;20.15;100.00
13422;BME280;6782;55.904;13.396;2022-08-19T01:57:10;100028.06;;;20.24;100.00
13422;BME280;6782;55.904;13.396;2022-08-19T02:00:10;100014.38;;;20.16;100.00
13422;BME280;6782;55.904;13.396;2022-08-19T02:03:12;100020.41;;;20.07;100.00
13422;BME280;6782;55.904;13.396;2022-08-19T02:06:06;62769.09;;;-143.06;100.00
13422;BME280;6782;55.904;13.396;2022-08-19T02:08:57;62769.09;;;-143.06;100.00
13422;BME280;6782;55.904;13.396;2022-08-19T02:11:44;100043.94;;;19.78;100.00
13422;BME280;6782;55.904;13.396;2022-08-19T02:14:36;62769.09;;;-143.06;100.00
13422;BME280;6782;55.904;13.396;2022-08-19T02:17:30;62769.09;;;-143.06;100.00
13422;BME280;6782;55.904;13.396;2022-08-19T02:20:18;62769.09;;;-143.06;100.00
13422;BME280;6782;55.904;13.396;2022-08-19T02:23:09;62769.09;;;-143.06;100.00
13422;BME280;6782;55.904;13.396;2022-08-19T02:26:00;100025.50;;;18.21;100.00
13422;BME280;6782;55.904;13.396;2022-08-19T02:28:59;100020.44;;;18.31;100.00
13422;BME280;6782;55.904;13.396;2022-08-19T02:31:52;100016.75;;;18.19;100.00
13422;BME280;6782;55.904;13.396;2022-08-19T02:34:49;99982.59;;;18.24;100.00
13422;BME280;6782;55.904;13.396;2022-08-19T02:37:40;99967.25;;;18.28;100.00
13422;BME280;6782;55.904;13.396;2022-08-19T02:40:57;99967.25;;;18.28;100.00
13422;BME280;6782;55.904;13.396;2022-08-19T02:43:57;99928.47;;;18.49;100.00
13422;BME280;6782;55.904;13.396;2022-08-19T02:46:49;99917.16;;;18.44;100.00
13422;BME280;6782;55.904;13.396;2022-08-19T02:49:38;99901.97;;;18.58;100.00
13422;BME280;6782;55.904;13.396;2022-08-19T02:52:29;99901.53;;;18.77;100.00
13422;BME280;6782;55.904;13.396;2022-08-19T02:55:25;99891.91;;;18.87;100.00
13422;BME280;6782;55.904;13.396;2022-08-19T02:58:12;99887.84;;;18.94;100.00
13422;BME280;6782;55.904;13.396;2022-08-19T03:00:59;99881.19;;;19.00;100.00
13422;BME280;6782;55.904;13.396;2022-08-19T03:03:57;99860.69;;;18.88;100.00
13422;BME280;6782;55.904;13.396;2022-08-19T03:06:48;99861.94;;;19.07;100.00
13422;BME280;6782;55.904;13.396;2022-08-19T03:09:42;62769.09;;;-143.06;100.00
13422;BME280;6782;55.904;13.396;2022-08-19T03:12:38;99858.88;;;19.24;100.00
13422;BME280;6782;55.904;13.396;2022-08-19T03:15:25;62769.09;;;-143.06;100.00
13422;BME280;6782;55.904;13.396;2022-08-19T03:18:15;62769.09;;;-143.06;100.00
13422;BME280;6782;55.904;13.396;2022-08-19T03:21:15;62769.09;;;-143.06;100.00
13422;BME280;6782;55.904;13.396;2022-08-19T03:24:16;62769.09;;;-143.06;100.00
13422;BME280;6782;55.904;13.396;2022-08-19T03:27:12;62769.09;;;-143.06;100.00
13422;BME280;6782;55.904;13.396;2022-08-19T03:29:59;62769.09;;;-143.06;100.00
13422;BME280;6782;55.904;13.396;2022-08-19T03:32:56;62769.09;;;-143.06;100.00
13422;BME280;6782;55.904;13.396;2022-08-19T03:36:00;62769.09;;;-143.06;100.00
13422;BME280;6782;55.904;13.396;2022-08-19T03:39:01;62769.09;;;-143.06;100.00
13422;BME280;6782;55.904;13.396;2022-08-19T03:41:51;99845.44;;;19.13;100.00
13422;BME280;6782;55.904;13.396;2022-08-19T03:44:47;62769.09;;;-143.06;100.00
13422;BME280;6782;55.904;13.396;2022-08-19T03:47:40;62769.09;;;-143.06;100.00
13422;BME280;6782;55.904;13.396;2022-08-19T03:50:38;99831.84;;;18.80;100.00
13422;BME280;6782;55.904;13.396;2022-08-19T03:53:31;99809.13;;;18.49;100.00
13422;BME280;6782;55.904;13.396;2022-08-19T03:56:22;99818.19;;;18.59;100.00
13422;BME280;6782;55.904;13.396;2022-08-19T03:59:19;99830.56;;;18.86;100.00
13422;BME280;6782;55.904;13.396;2022-08-19T04:02:11;99829.41;;;19.13;100.00
13422;BME280;6782;55.904;13.396;2022-08-19T04:05:01;99815.16;;;18.89;100.00
13422;BME280;6782;55.904;13.396;2022-08-19T04:07:49;99807.25;;;18.88;100.00
13422;BME280;6782;55.904;13.396;2022-08-19T04:10:57;62769.09;;;-143.06;100.00
13422;BME280;6782;55.904;13.396;2022-08-19T04:13:45;99813.44;;;18.88;100.00
13422;BME280;6782;55.904;13.396;2022-08-19T04:16:34;99820.88;;;19.08;100.00
13422;BME280;6782;55.904;13.396;2022-08-19T04:19:34;99829.22;;;19.04;100.00
13422;BME280;6782;55.904;13.396;2022-08-19T04:22:25;99815.97;;;19.02;100.00
13422;BME280;6782;55.904;13.396;2022-08-19T04:25:16;99822.19;;;18.90;100.00
13422;BME280;6782;55.904;13.396;2022-08-19T04:28:12;99822.19;;;18.90;100.00
13422;BME280;6782;55.904;13.396;2022-08-19T04:31:00;99840.69;;;18.93;100.00
13422;BME280;6782;55.904;13.396;2022-08-19T04:34:05;99837.44;;;18.77;100.00
13422;BME280;6782;55.904;13.396;2022-08-19T04:36:58;99848.78;;;19.04;100.00
13422;BME280;6782;55.904;13.396;2022-08-19T04:39:48;99854.50;;;18.87;100.00
13422;BME280;6782;55.904;13.396;2022-08-19T04:42:53;99866.00;;;19.13;100.00
13422;BME280;6782;55.904;13.396;2022-08-19T04:45:42;99881.13;;;19.38;100.00
13422;BME280;6782;55.904;13.396;2022-08-19T04:48:33;62769.09;;;-143.06;100.00
13422;BME280;6782;55.904;13.396;2022-08-19T04:51:24;99902.91;;;19.31;100.00
13422;BME280;6782;55.904;13.396;2022-08-19T04:54:22;99912.94;;;19.53;100.00
13422;BME280;6782;55.904;13.396;2022-08-19T04:57:17;107899.94;;;-143.06;100.00
13422;BME280;6782;55.904;13.396;2022-08-19T05:00:05;99929.56;;;19.46;100.00
13422;BME280;6782;55.904;13.396;2022-08-19T05:02:53;99943.75;;;19.59;100.00
13422;BME280;6782;55.904;13.396;2022-08-19T05:05:46;62769.09;;;-143.06;100.00
13422;BME280;6782;55.904;13.396;2022-08-19T05:08:35;99952.28;;;19.64;100.00
13422;BME280;6782;55.904;13.396;2022-08-19T05:11:34;99972.69;;;19.65;100.00
13422;BME280;6782;55.904;13.396;2022-08-19T05:14:24;99981.09;;;19.84;100.00
13422;BME280;6782;55.904;13.396;2022-08-19T05:17:12;99986.56;;;20.06;100.00
13422;BME280;6782;55.904;13.396;2022-08-19T05:19:59;99998.19;;;19.94;100.00
13422;BME280;6782;55.904;13.396;2022-08-19T05:23:20;100001.41;;;20.23;100.00
13422;BME280;6782;55.904;13.396;2022-08-19T05:26:14;116973.13;;;-143.06;100.00
13422;BME280;6782;55.904;13.396;2022-08-19T05:29:06;62769.09;;;-143.06;100.00
13422;BME280;6782;55.904;13.396;2022-08-19T05:31:58;62769.09;;;-143.06;100.00
13422;BME280;6782;55.904;13.396;2022-08-19T05:34:59;62769.09;;;-143.06;100.00
13422;BME280;6782;55.904;13.396;2022-08-19T05:37:50;62769.09;;;-143.06;100.00
13422;BME280;6782;55.904;13.396;2022-08-19T05:40:40;62769.09;;;-143.06;100.00
13422;BME280;6782;55.904;13.396;2022-08-19T05:43:27;62769.09;;;-143.06;100.00
13422;BME280;6782;55.904;13.396;2022-08-19T05:46:18;62769.09;;;-143.06;100.00
13422;BME280;6782;55.904;13.396;2022-08-19T05:49:07;62769.09;;;-143.06;100.00
13422;BME280;6782;55.904;13.396;2022-08-19T05:51:55;62769.09;;;-143.06;100.00
13422;BME280;6782;55.904;13.396;2022-08-19T05:54:42;100011.09;;;21.28;100.00
13422;BME280;6782;55.904;13.396;2022-08-19T05:57:33;100012.56;;;21.21;100.00
13422;BME280;6782;55.904;13.396;2022-08-19T06:00:20;83965.16;;;21.21;100.00
13422;BME280;6782;55.904;13.396;2022-08-19T06:03:10;100016.25;;;21.31;100.00
13422;BME280;6782;55.904;13.396;2022-08-19T06:05:57;62769.09;;;-143.06;100.00
13422;BME280;6782;55.904;13.396;2022-08-19T06:08:46;62769.09;;;-143.06;100.00
13422;BME280;6782;55.904;13.396;2022-08-19T06:11:37;62769.09;;;-143.06;100.00
13422;BME280;6782;55.904;13.396;2022-08-19T06:14:28;62769.09;;;-143.06;100.00
13422;BME280;6782;55.904;13.396;2022-08-19T06:17:15;62769.09;;;-143.06;100.00
13422;BME280;6782;55.904;13.396;2022-08-19T06:20:07;62769.09;;;-143.06;100.00
13422;BME280;6782;55.904;13.396;2022-08-19T06:22:55;62769.09;;;-143.06;100.00
13422;BME280;6782;55.904;13.396;2022-08-19T06:25:42;62769.09;;;-143.06;100.00
13422;BME280;6782;55.904;13.396;2022-08-19T06:28:29;62769.09;;;-143.06;100.00
13422;BME280;6782;55.904;13.396;2022-08-19T06:31:20;99976.16;;;21.83;100.00
13422;BME280;6782;55.904;13.396;2022-08-19T06:34:08;99974.72;;;21.79;100.00
13422;BME280;6782;55.904;13.396;2022-08-19T06:36:59;99963.84;;;21.70;100.00
13422;BME280;6782;55.904;13.396;2022-08-19T06:39:47;99967.63;;;21.78;100.00
13422;BME280;6782;55.904;13.396;2022-08-19T06:42:35;99967.63;;;21.78;100.00
13422;BME280;6782;55.904;13.396;2022-08-19T06:45:24;99963.84;;;21.70;100.00
13422;BME280;6782;55.904;13.396;2022-08-19T06:48:11;62769.09;;;-143.06;100.00
13422;BME280;6782;55.904;13.396;2022-08-19T06:50:58;99963.84;;;21.70;100.00
13422;BME280;6782;55.904;13.396;2022-08-19T06:53:48;99962.53;;;21.87;100.00
13422;BME280;6782;55.904;13.396;2022-08-19T06:56:37;62769.09;;;-143.06;100.00
13422;BME280;6782;55.904;13.396;2022-08-19T06:59:24;99962.75;;;21.83;100.00
13422;BME280;6782;55.904;13.396;2022-08-19T07:02:13;62769.09;;;-143.06;100.00
13422;BME280;6782;55.904;13.396;2022-08-19T07:05:00;99966.34;;;22.16;100.00
13422;BME280;6782;55.904;13.396;2022-08-19T07:07:49;99969.81;;;22.27;100.00
13422;BME280;6782;55.904;13.396;2022-08-19T07:10:42;99980.19;;;22.32;100.00
13422;BME280;6782;55.904;13.396;2022-08-19T07:13:30;99987.41;;;22.31;100.00
13422;BME280;6782;55.904;13.396;2022-08-19T07:17:16;62769.09;;;-143.06;100.00
13422;BME280;6782;55.904;13.396;2022-08-19T07:20:06;62769.09;;;-143.06;100.00
13422;BME280;6782;55.904;13.396;2022-08-19T07:22:53;100006.06;;;22.33;100.00
13422;BME280;6782;55.904;13.396;2022-08-19T07:25:44;100006.75;;;22.46;100.00
13422;BME280;6782;55.904;13.396;2022-08-19T07:28:31;62769.09;;;-143.06;100.00
13422;BME280;6782;55.904;13.396;2022-08-19T07:31:21;100014.50;;;22.60;100.00
13422;BME280;6782;55.904;13.396;2022-08-19T07:34:10;100030.34;;;22.74;100.00
13422;BME280;6782;55.904;13.396;2022-08-19T07:36:57;62769.09;;;-143.06;100.00
13422;BME280;6782;55.904;13.396;2022-08-19T07:39:54;62769.09;;;-143.06;100.00
13422;BME280;6782;55.904;13.396;2022-08-19T07:42:53;62769.09;;;-143.06;100.00
13422;BME280;6782;55.904;13.396;2022-08-19T07:45:40;62769.09;;;-143.06;100.00
13422;BME280;6782;55.904;13.396;2022-08-19T07:48:28;62769.09;;;-143.06;100.00
13422;BME280;6782;55.904;13.396;2022-08-19T07:51:18;100055.63;;;22.40;100.00
13422;BME280;6782;55.904;13.396;2022-08-19T07:54:05;100070.63;;;22.42;100.00
13422;BME280;6782;55.904;13.396;2022-08-19T07:56:54;100082.41;;;22.73;100.00
13422;BME280;6782;55.904;13.396;2022-08-19T07:59:43;100087.38;;;22.46;100.00
13422;BME280;6782;55.904;13.396;2022-08-19T08:02:30;100093.00;;;22.32;100.00
13422;BME280;6782;55.904;13.396;2022-08-19T08:05:18;62769.09;;;-143.06;100.00
13422;BME280;6782;55.904;13.396;2022-08-19T08:08:23;100099.78;;;22.69;100.00
13422;BME280;6782;55.904;13.396;2022-08-19T08:11:25;100087.91;;;22.29;100.00
13422;BME280;6782;55.904;13.396;2022-08-19T08:14:12;100072.75;;;22.39;100.00
13422;BME280;6782;55.904;13.396;2022-08-19T08:17:02;100061.78;;;22.20;100.00
13422;BME280;6782;55.904;13.396;2022-08-19T08:19:50;100056.19;;;22.23;100.00
13422;BME280;6782;55.904;13.396;2022-08-19T08:22:43;100059.41;;;22.49;100.00
13422;BME280;6782;55.904;13.396;2022-08-19T08:25:44;62769.09;;;-143.06;100.00
13422;BME280;6782;55.904;13.396;2022-08-19T08:28:32;100051.53;;;22.25;100.00
13422;BME280;6782;55.904;13.396;2022-08-19T08:31:19;62769.09;;;-143.06;100.00
13422;BME280;6782;55.904;13.396;2022-08-19T08:34:10;62769.09;;;-143.06;100.00
13422;BME280;6782;55.904;13.396;2022-08-19T08:37:55;62769.09;;;-143.06;nan
13422;BME280;6782;55.904;13.396;2022-08-19T08:41:01;62769.09;;;-143.06;100.00
13422;BME280;6782;55.904;13.396;2022-08-19T08:43:53;100045.31;;;22.56;100.00
13422;BME280;6782;55.904;13.396;2022-08-19T08:46:46;100044.94;;;22.50;100.00
13422;BME280;6782;55.904;13.396;2022-08-19T08:49:41;62769.09;;;-143.06;100.00
13422;BME280;6782;55.904;13.396;2022-08-19T08:52:33;100051.53;;;22.57;100.00
13422;BME280;6782;55.904;13.396;2022-08-19T08:55:27;62769.09;;;-143.06;100.00
13422;BME280;6782;55.904;13.396;2022-08-19T08:58:19;62769.09;;;-143.06;100.00
13422;BME280;6782;55.904;13.396;2022-08-19T09:01:09;62769.09;;;-143.06;100.00
13422;BME280;6782;55.904;13.396;2022-08-19T09:03:57;100102.19;;;23.25;100.00
13422;BME280;6782;55.904;13.396;2022-08-19T09:06:51;62769.09;;;-143.06;100.00
13422;BME280;6782;55.904;13.396;2022-08-19T09:09:43;62769.09;;;-143.06;100.00
13422;BME280;6782;55.904;13.396;2022-08-19T09:12:36;62769.09;;;-143.06;100.00
13422;BME280;6782;55.904;13.396;2022-08-19T09:15:38;62769.09;;;-143.06;100.00
13422;BME280;6782;55.904;13.396;2022-08-19T09:18:43;62769.09;;;-143.06;100.00
13422;BME280;6782;55.904;13.396;2022-08-19T09:21:31;62769.09;;;-143.06;100.00
13422;BME280;6782;55.904;13.396;2022-08-19T09:24:20;62769.09;;;-143.06;100.00
13422;BME280;6782;55.904;13.396;2022-08-19T09:27:37;62769.09;;;-143.06;100.00
13422;BME280;6782;55.904;13.396;2022-08-19T09:30:27;62769.09;;;-143.06;100.00
13422;BME280;6782;55.904;13.396;2022-08-19T09:33:15;62769.09;;;-143.06;100.00
13422;BME280;6782;55.904;13.396;2022-08-19T09:36:05;62769.09;;;-143.06;100.00
13422;BME280;6782;55.904;13.396;2022-08-19T09:39:05;62769.09;;;-143.06;100.00
13422;BME280;6782;55.904;13.396;2022-08-19T09:42:52;62769.09;;;-143.06;100.00
13422;BME280;6782;55.904;13.396;2022-08-19T09:46:05;62769.09;;;-143.06;100.00
13422;BME280;6782;55.904;13.396;2022-08-19T09:49:52;62769.09;;;-143.06;100.00
13422;BME280;6782;55.904;13.396;2022-08-19T09:53:38;62769.09;;;-143.06;100.00
13422;BME280;6782;55.904;13.396;2022-08-19T09:56:41;62769.09;;;-143.06;100.00
13422;BME280;6782;55.904;13.396;2022-08-19T09:59:30;62769.09;;;-143.06;100.00
13422;BME280;6782;55.904;13.396;2022-08-19T10:03:00;62769.09;;;-143.06;100.00
13422;BME280;6782;55.904;13.396;2022-08-19T10:06:45;62769.09;;;-143.06;100.00
13422;BME280;6782;55.904;13.396;2022-08-19T10:10:08;62769.09;;;-143.06;100.00
13422;BME280;6782;55.904;13.396;2022-08-19T10:13:54;62769.09;;;-143.06;100.00
13422;BME280;6782;55.904;13.396;2022-08-19T10:17:44;62769.09;;;-143.06;100.00
13422;BME280;6782;55.904;13.396;2022-08-19T10:21:30;62769.09;;;-143.06;100.00
13422;BME280;6782;55.904;13.396;2022-08-19T10:25:18;62769.09;;;-143.06;100.00
13422;BME280;6782;55.904;13.396;2022-08-19T10:29:04;62769.09;;;-143.06;100.00
13422;BME280;6782;55.904;13.396;2022-08-19T10:32:52;62769.09;;;-143.06;100.00
13422;BME280;6782;55.904;13.396;2022-08-19T10:36:40;62769.09;;;-143.06;100.00
13422;BME280;6782;55.904;13.396;2022-08-19T10:39:47;100102.19;;;23.25;100.00
13422;BME280;6782;55.904;13.396;2022-08-19T10:43:33;62769.09;;;-143.06;100.00
13422;BME280;6782;55.904;13.396;2022-08-19T10:46:56;62769.09;;;-143.06;100.00
13422;BME280;6782;55.904;13.396;2022-08-19T10:50:46;62769.09;;;-143.06;100.00
13422;BME280;6782;55.904;13.396;2022-08-19T10:54:49;62769.09;;;-143.06;100.00
13422;BME280;6782;55.904;13.396;2022-08-19T10:58:52;62769.09;;;-143.06;100.00
13422;BME280;6782;55.904;13.396;2022-08-19T11:02:44;62769.09;;;-143.06;100.00
13422;BME280;6782;55.904;13.396;2022-08-19T11:06:30;62769.09;;;-143.06;100.00
13422;BME280;6782;55.904;13.396;2022-08-19T11:10:17;62769.09;;;-143.06;100.00
13422;BME280;6782;55.904;13.396;2022-08-19T11:13:05;62769.09;;;-143.06;100.00
13422;BME280;6782;55.904;13.396;2022-08-19T11:16:55;62769.09;;;-143.06;100.00
13422;BME280;6782;55.904;13.396;2022-08-19T11:20:43;62769.09;;;-143.06;100.00
13422;BME280;6782;55.904;13.396;2022-08-19T11:23:36;62769.09;;;-143.06;100.00
13422;BME280;6782;55.904;13.396;2022-08-19T11:27:23;62769.09;;;-143.06;100.00
13422;BME280;6782;55.904;13.396;2022-08-19T11:31:11;62769.09;;;-143.06;100.00
13422;BME280;6782;55.904;13.396;2022-08-19T11:35:00;62769.09;;;-143.06;100.00
13422;BME280;6782;55.904;13.396;2022-08-19T11:38:45;62769.09;;;-143.06;100.00
13422;BME280;6782;55.904;13.396;2022-08-19T11:41:47;62769.09;;;-143.06;100.00
13422;BME280;6782;55.904;13.396;2022-08-19T11:45:33;62769.09;;;-143.06;100.00
13422;BME280;6782;55.904;13.396;2022-08-19T11:49:19;62769.09;;;-143.06;100.00
13422;BME280;6782;55.904;13.396;2022-08-19T11:53:07;62769.09;;;-143.06;100.00
13422;BME280;6782;55.904;13.396;2022-08-19T11:56:54;62769.09;;;-143.06;100.00
13422;BME280;6782;55.904;13.396;2022-08-19T12:00:39;62769.09;;;-143.06;100.00
13422;BME280;6782;55.904;13.396;2022-08-19T12:04:25;62769.09;;;-143.06;100.00
13422;BME280;6782;55.904;13.396;2022-08-19T12:07:25;62769.09;;;-143.06;100.00
13422;BME280;6782;55.904;13.396;2022-08-19T12:11:07;62769.09;;;-143.06;100.00
13422;BME280;6782;55.904;13.396;2022-08-19T12:14:48;62769.09;;;-143.06;100.00
13422;BME280;6782;55.904;13.396;2022-08-19T12:18:35;62769.09;;;-143.06;100.00
13422;BME280;6782;55.904;13.396;2022-08-19T12:22:24;62769.09;;;-143.06;100.00
13422;BME280;6782;55.904;13.396;2022-08-19T12:26:10;62769.09;;;-143.06;100.00
13422;BME280;6782;55.904;13.396;2022-08-19T12:29:54;62769.09;;;-143.06;100.00
13422;BME280;6782;55.904;13.396;2022-08-19T12:32:42;62769.09;;;-143.06;100.00
13422;BME280;6782;55.904;13.396;2022-08-19T12:35:39;62769.09;;;-143.06;100.00
13422;BME280;6782;55.904;13.396;2022-08-19T12:39:23;62769.09;;;-143.06;100.00
13422;BME280;6782;55.904;13.396;2022-08-19T12:43:10;62769.09;;;-143.06;100.00
13422;BME280;6782;55.904;13.396;2022-08-19T12:46:56;62769.09;;;-143.06;100.00
13422;BME280;6782;55.904;13.396;2022-08-19T12:50:43;62769.09;;;-143.06;100.00
13422;BME280;6782;55.904;13.396;2022-08-19T12:54:34;62769.09;;;-143.06;100.00
13422;BME280;6782;55.904;13.396;2022-08-19T12:58:21;62769.09;;;-143.06;100.00
13422;BME280;6782;55.904;13.396;2022-08-19T13:02:08;62769.09;;;-143.06;100.00
13422;BME280;6782;55.904;13.396;2022-08-19T13:05:54;62769.09;;;-143.06;100.00
13422;BME280;6782;55.904;13.396;2022-08-19T13:09:41;62769.09;;;-143.06;100.00
13422;BME280;6782;55.904;13.396;2022-08-19T13:13:25;62769.09;;;-143.06;100.00
13422;BME280;6782;55.904;13.396;2022-08-19T13:17:10;62769.09;;;-143.06;100.00
13422;BME280;6782;55.904;13.396;2022-08-19T13:21:01;62769.09;;;-143.06;100.00
13422;BME280;6782;55.904;13.396;2022-08-19T13:23:51;62769.09;;;-143.06;100.00
13422;BME280;6782;55.904;13.396;2022-08-19T13:26:39;62769.09;;;-143.06;100.00
13422;BME280;6782;55.904;13.396;2022-08-19T13:29:27;62769.09;;;-143.06;100.00
13422;BME280;6782;55.904;13.396;2022-08-19T13:32:54;62769.09;;;-143.06;100.00
13422;BME280;6782;55.904;13.396;2022-08-19T13:36:27;62769.09;;;-143.06;100.00
13422;BME280;6782;55.904;13.396;2022-08-19T13:39:57;62769.09;;;-143.06;100.00
13422;BME280;6782;55.904;13.396;2022-08-19T13:43:43;62769.09;;;-143.06;100.00
13422;BME280;6782;55.904;13.396;2022-08-19T13:46:53;62769.09;;;-143.06;100.00
13422;BME280;6782;55.904;13.396;2022-08-19T13:50:42;62769.09;;;-143.06;100.00
13422;BME280;6782;55.904;13.396;2022-08-19T13:54:30;62769.09;;;-143.06;100.00
13422;BME280;6782;55.904;13.396;2022-08-19T13:57:49;62769.09;;;-143.06;100.00
13422;BME280;6782;55.904;13.396;2022-08-19T14:01:37;62769.09;;;-143.06;100.00
13422;BME280;6782;55.904;13.396;2022-08-19T14:05:24;62769.09;;;-143.06;100.00
13422;BME280;6782;55.904;13.396;2022-08-19T14:09:10;62769.09;;;-143.06;100.00
13422;BME280;6782;55.904;13.396;2022-08-19T14:12:48;62769.09;;;-143.06;100.00
13422;BME280;6782;55.904;13.396;2022-08-19T14:16:48;62769.09;;;-143.06;100.00
13422;BME280;6782;55.904;13.396;2022-08-19T14:20:43;62769.09;;;-143.06;100.00
13422;BME280;6782;55.904;13.396;2022-08-19T14:24:31;62769.09;;;-143.06;100.00
13422;BME280;6782;55.904;13.396;2022-08-19T14:28:20;62769.09;;;-143.06;100.00
13422;BME280;6782;55.904;13.396;2022-08-19T14:32:04;62769.09;;;-143.06;100.00
13422;BME280;6782;55.904;13.396;2022-08-19T14:35:59;62769.09;;;-143.06;100.00
13422;BME280;6782;55.904;13.396;2022-08-19T14:40:24;62769.09;;;-143.06;100.00
13422;BME280;6782;55.904;13.396;2022-08-19T14:44:16;62769.09;;;-143.06;100.00
13422;BME280;6782;55.904;13.396;2022-08-19T14:48:00;62769.09;;;-143.06;100.00
13422;BME280;6782;55.904;13.396;2022-08-19T14:51:54;62769.09;;;-143.06;100.00
13422;BME280;6782;55.904;13.396;2022-08-19T14:54:56;62769.09;;;-143.06;100.00
13422;BME280;6782;55.904;13.396;2022-08-19T14:59:02;62769.09;;;-143.06;100.00
13422;BME280;6782;55.904;13.396;2022-08-19T15:02:50;62769.09;;;-143.06;100.00
13422;BME280;6782;55.904;13.396;2022-08-19T15:06:38;62769.09;;;-143.06;100.00
13422;BME280;6782;55.904;13.396;2022-08-19T15:10:39;62769.09;;;-143.06;100.00
13422;BME280;6782;55.904;13.396;2022-08-19T15:13:30;62769.09;;;-143.06;100.00
13422;BME280;6782;55.904;13.396;2022-08-19T15:16:32;62769.09;;;-143.06;100.00
13422;BME280;6782;55.904;13.396;2022-08-19T15:20:24;62769.09;;;-143.06;100.00
13422;BME280;6782;55.904;13.396;2022-08-19T15:23:36;62769.09;;;-143.06;100.00
13422;BME280;6782;55.904;13.396;2022-08-19T15:27:24;62769.09;;;-143.06;100.00
13422;BME280;6782;55.904;13.396;2022-08-19T15:31:25;62769.09;;;-143.06;100.00
13422;BME280;6782;55.904;13.396;2022-08-19T15:35:34;62769.09;;;-143.06;100.00
13422;BME280;6782;55.904;13.396;2022-08-19T15:38:22;62769.09;;;-143.06;100.00
13422;BME280;6782;55.904;13.396;2022-08-19T15:41:28;62769.09;;;-143.06;100.00
13422;BME280;6782;55.904;13.396;2022-08-19T15:45:14;62769.09;;;-143.06;100.00
13422;BME280;6782;55.904;13.396;2022-08-19T15:48:33;62769.09;;;-143.06;100.00
13422;BME280;6782;55.904;13.396;2022-08-19T15:51:23;62769.09;;;-143.06;100.00
13422;BME280;6782;55.904;13.396;2022-08-19T15:55:11;62769.09;;;-143.06;100.00
13422;BME280;6782;55.904;13.396;2022-08-19T15:58:29;62769.09;;;-143.06;100.00
13422;BME280;6782;55.904;13.396;2022-08-19T16:02:04;62769.09;;;-143.06;100.00
13422;BME280;6782;55.904;13.396;2022-08-19T16:06:10;62769.09;;;-143.06;100.00